createdAt,value
2023-05-07T00:02:39.324Z,17.86
2023-05-07T00:05:44.940Z,17.93
2023-05-07T00:08:50.769Z,17.85
2023-05-07T00:11:56.729Z,17.76
2023-05-07T00:15:04.043Z,17.72
2023-05-07T00:18:09.633Z,17.52
2023-05-07T00:21:15.269Z,17.57
2023-05-07T00:24:21.297Z,17.34
2023-05-07T00:27:27.208Z,17.32
2023-05-07T00:30:33.354Z,17.36
2023-05-07T00:33:39.706Z,17.34
2023-05-07T00:36:44.891Z,17.26
2023-05-07T00:39:51.020Z,17.35
2023-05-07T00:42:59.525Z,17.34
2023-05-07T00:46:05.129Z,17.11
2023-05-07T00:49:11.141Z,16.94
2023-05-07T00:52:18.964Z,17.00
2023-05-07T00:55:25.235Z,16.99
2023-05-07T00:58:31.717Z,16.83
2023-05-07T01:01:38.177Z,17.01
2023-05-07T01:04:44.110Z,16.78
2023-05-07T01:07:51.461Z,16.27
2023-05-07T01:10:59.011Z,16.45
2023-05-07T01:14:05.741Z,16.67
2023-05-07T01:17:12.266Z,16.65
2023-05-07T01:20:19.218Z,16.46
2023-05-07T01:23:26.993Z,16.32
2023-05-07T01:26:32.620Z,16.22
2023-05-07T01:29:38.625Z,16.62
2023-05-07T01:32:54.881Z,16.62
2023-05-07T01:36:03.521Z,16.61
2023-05-07T01:39:10.996Z,16.55
2023-05-07T01:42:16.605Z,16.56
2023-05-07T01:45:23.097Z,16.60
2023-05-07T01:48:30.234Z,16.76
2023-05-07T01:51:36.731Z,16.82
2023-05-07T01:54:42.296Z,16.80
2023-05-07T01:57:47.506Z,16.86
2023-05-07T02:00:53.508Z,16.85
2023-05-07T02:03:59.060Z,16.94
2023-05-07T02:07:07.500Z,16.93
2023-05-07T02:10:13.098Z,16.73
2023-05-07T02:13:18.721Z,16.65
2023-05-07T02:16:25.210Z,16.58
2023-05-07T02:19:31.801Z,16.70
2023-05-07T02:22:37.973Z,16.64
2023-05-07T02:25:43.625Z,16.58
2023-05-07T02:28:49.247Z,16.55
2023-05-07T02:31:54.941Z,16.60
2023-05-07T02:35:00.912Z,16.57
2023-05-07T02:38:06.473Z,16.14
2023-05-07T02:41:12.986Z,16.30
2023-05-07T02:44:18.341Z,16.31
2023-05-07T02:47:30.988Z,15.95
2023-05-07T02:50:38.140Z,15.88
2023-05-07T02:53:43.618Z,16.04
2023-05-07T02:56:49.155Z,16.09
2023-05-07T02:59:54.532Z,16.18
2023-05-07T03:03:01.029Z,16.23
2023-05-07T03:06:08.022Z,15.88
2023-05-07T03:09:13.439Z,15.98
2023-05-07T03:12:18.991Z,16.04
2023-05-07T03:15:24.165Z,15.92
2023-05-07T03:18:29.684Z,16.07
2023-05-07T03:21:35.663Z,15.84
2023-05-07T03:24:41.148Z,16.00
2023-05-07T03:27:47.088Z,15.79
2023-05-07T03:30:52.409Z,15.89
2023-05-07T03:33:58.812Z,15.88
2023-05-07T03:37:05.172Z,15.91
2023-05-07T03:40:12.227Z,15.93
2023-05-07T03:43:24.636Z,15.78
2023-05-07T03:46:39.624Z,15.83
2023-05-07T03:49:46.436Z,15.91
2023-05-07T03:52:53.162Z,15.88
2023-05-07T03:56:00.702Z,15.91
2023-05-07T03:59:09.846Z,15.93
2023-05-07T04:02:15.242Z,15.97
2023-05-07T04:05:20.723Z,15.83
2023-05-07T04:08:29.711Z,15.89
2023-05-07T04:11:36.060Z,15.83
2023-05-07T04:14:41.310Z,15.81
2023-05-07T04:17:47.069Z,15.78
2023-05-07T04:20:54.354Z,15.63
2023-05-07T04:24:00.720Z,15.73
2023-05-07T04:27:07.835Z,15.85
2023-05-07T04:30:14.676Z,16.05
2023-05-07T04:33:21.082Z,16.06
2023-05-07T04:36:31.529Z,15.96
2023-05-07T04:39:41.864Z,16.23
2023-05-07T04:42:47.749Z,16.33
2023-05-07T04:45:53.762Z,16.48
2023-05-07T04:49:02.270Z,16.62
2023-05-07T04:52:08.035Z,16.62
2023-05-07T04:55:14.070Z,16.67
2023-05-07T04:58:20.588Z,16.69
2023-05-07T05:01:27.144Z,16.74
2023-05-07T05:04:33.208Z,16.67
2023-05-07T05:07:39.073Z,16.71
2023-05-07T05:10:44.835Z,16.58
2023-05-07T05:13:50.704Z,16.79
2023-05-07T05:16:59.696Z,16.93
2023-05-07T05:20:07.015Z,16.98
2023-05-07T05:23:13.807Z,17.03
2023-05-07T05:26:20.076Z,17.08
2023-05-07T05:29:25.616Z,17.24
2023-05-07T05:32:31.183Z,17.46
2023-05-07T05:35:37.083Z,17.57
2023-05-07T05:38:45.629Z,17.58
2023-05-07T05:41:52.866Z,17.70
2023-05-07T05:44:59.867Z,17.88
2023-05-07T05:48:07.552Z,18.13
2023-05-07T05:51:13.248Z,18.20
2023-05-07T05:54:19.142Z,18.28
2023-05-07T05:57:25.989Z,18.26
2023-05-07T06:00:33.735Z,18.58
2023-05-07T06:03:42.254Z,18.68
2023-05-07T06:06:52.840Z,18.75
2023-05-07T06:09:59.500Z,18.73
2023-05-07T06:13:05.004Z,18.89
2023-05-07T06:16:12.874Z,18.98
2023-05-07T06:19:24.304Z,18.77
2023-05-07T06:22:32.050Z,18.87
2023-05-07T06:25:38.798Z,19.02
2023-05-07T06:28:44.417Z,19.27
2023-05-07T06:31:54.570Z,19.38
2023-05-07T06:35:01.563Z,19.72
2023-05-07T06:38:07.183Z,19.85
2023-05-07T06:41:12.999Z,19.86
2023-05-07T06:44:19.013Z,19.67
2023-05-07T06:47:30.332Z,19.39
2023-05-07T06:50:36.250Z,19.43
2023-05-07T06:53:42.127Z,19.42
2023-05-07T06:56:50.175Z,19.40
2023-05-07T06:59:56.484Z,19.30
2023-05-07T07:03:02.379Z,19.31
2023-05-07T07:06:10.159Z,19.45
2023-05-07T07:09:16.607Z,19.91
2023-05-07T07:12:21.954Z,20.26
2023-05-07T07:15:28.081Z,20.40
2023-05-07T07:18:35.079Z,20.47
2023-05-07T07:21:40.566Z,20.47
2023-05-07T07:24:46.412Z,20.69
2023-05-07T07:27:55.474Z,20.83
2023-05-07T07:31:02.866Z,21.03
2023-05-07T07:34:09.895Z,21.08
2023-05-07T07:37:15.579Z,21.27
2023-05-07T07:40:21.651Z,21.24
2023-05-07T07:43:27.826Z,21.56
2023-05-07T07:46:34.617Z,21.73
2023-05-07T07:49:40.950Z,21.69
2023-05-07T07:52:50.343Z,21.53
2023-05-07T07:55:59.526Z,21.80
2023-05-07T07:59:08.490Z,22.19
2023-05-07T08:02:18.480Z,22.01
2023-05-07T08:05:24.680Z,21.85
2023-05-07T08:08:30.539Z,21.62
2023-05-07T08:11:36.541Z,21.60
2023-05-07T08:14:43.672Z,21.51
2023-05-07T08:17:49.732Z,21.45
2023-05-07T08:20:55.634Z,21.42
2023-05-07T08:24:04.258Z,21.45
2023-05-07T08:27:09.795Z,21.60
2023-05-07T08:30:15.653Z,21.74
2023-05-07T08:33:21.553Z,21.96
2023-05-07T08:36:27.153Z,22.06
2023-05-07T08:39:32.702Z,22.10
2023-05-07T08:42:39.162Z,22.10
2023-05-07T08:45:47.257Z,22.30
2023-05-07T08:48:54.597Z,22.24
2023-05-07T08:52:00.391Z,21.96
2023-05-07T08:55:08.565Z,22.26
2023-05-07T08:58:13.720Z,22.09
2023-05-07T09:01:20.738Z,22.06
2023-05-07T09:04:30.490Z,22.05
2023-05-07T09:07:35.755Z,22.46
2023-05-07T09:10:43.776Z,22.59
2023-05-07T09:13:49.566Z,22.98
2023-05-07T09:16:55.276Z,22.97
2023-05-07T09:20:10.121Z,23.10
2023-05-07T09:23:18.230Z,22.98
2023-05-07T09:26:24.497Z,22.94
2023-05-07T09:29:31.302Z,23.02
2023-05-07T09:32:39.518Z,22.81
2023-05-07T09:35:53.095Z,23.16
2023-05-07T09:39:03.047Z,23.38
2023-05-07T09:42:09.633Z,23.27
2023-05-07T09:45:15.898Z,23.01
2023-05-07T09:48:21.970Z,23.08
2023-05-07T09:51:44.824Z,23.40
2023-05-07T09:54:52.852Z,23.55
2023-05-07T09:58:03.736Z,23.37
2023-05-07T10:01:09.910Z,23.29
2023-05-07T10:04:16.588Z,23.14
2023-05-07T10:07:24.408Z,23.09
2023-05-07T10:10:35.363Z,23.51
2023-05-07T10:13:43.982Z,23.57
2023-05-07T10:16:50.517Z,23.64
2023-05-07T10:19:56.564Z,23.67
2023-05-07T10:23:05.916Z,23.86
2023-05-07T10:26:21.945Z,23.77
2023-05-07T10:29:45.923Z,23.69
2023-05-07T10:32:55.414Z,23.73
2023-05-07T10:36:09.094Z,23.81
2023-05-07T10:39:15.670Z,23.50
2023-05-07T10:42:22.031Z,23.83
2023-05-07T10:45:32.605Z,23.93
2023-05-07T10:49:02.044Z,24.04
2023-05-07T10:52:17.424Z,24.29
2023-05-07T10:55:32.899Z,24.10
2023-05-07T10:58:46.687Z,23.91
2023-05-07T11:02:11.160Z,23.87
2023-05-07T11:05:23.861Z,23.94
2023-05-07T11:08:59.752Z,23.73
2023-05-07T11:12:37.895Z,23.79
2023-05-07T11:15:49.262Z,23.93
2023-05-07T11:19:01.975Z,24.05
2023-05-07T11:22:37.069Z,24.04
2023-05-07T11:26:08.092Z,24.22
2023-05-07T11:29:22.944Z,24.25
2023-05-07T11:32:34.947Z,24.44
2023-05-07T11:35:41.518Z,24.40
2023-05-07T11:38:49.966Z,24.48
2023-05-07T11:41:55.994Z,24.69
2023-05-07T11:45:02.821Z,24.57
2023-05-07T11:48:08.159Z,24.63
2023-05-07T11:51:14.530Z,24.30
2023-05-07T11:54:19.549Z,24.36
2023-05-07T11:57:25.987Z,24.17
2023-05-07T12:00:31.417Z,24.60
2023-05-07T12:03:41.085Z,24.87
2023-05-07T12:06:46.250Z,25.23
2023-05-07T12:09:51.615Z,25.40
2023-05-07T12:12:57.218Z,25.31
2023-05-07T12:16:06.534Z,25.39
2023-05-07T12:19:15.914Z,25.10
2023-05-07T12:22:22.211Z,25.30
2023-05-07T12:25:27.755Z,25.40
2023-05-07T12:28:39.305Z,25.19
2023-05-07T12:31:45.372Z,25.08
2023-05-07T12:34:53.648Z,25.04
2023-05-07T12:38:05.684Z,25.44
2023-05-07T12:41:13.865Z,25.43
2023-05-07T12:44:19.468Z,25.40
2023-05-07T12:47:24.800Z,25.29
2023-05-07T12:50:35.107Z,25.11
2023-05-07T12:53:44.538Z,25.23
2023-05-07T12:56:49.897Z,25.25
2023-05-07T12:59:59.556Z,25.22
2023-05-07T13:03:05.064Z,25.20
2023-05-07T13:06:11.710Z,25.36
2023-05-07T13:09:17.162Z,25.56
2023-05-07T13:12:22.752Z,25.73
2023-05-07T13:15:28.663Z,25.45
2023-05-07T13:18:35.291Z,25.40
2023-05-07T13:21:41.087Z,25.24
2023-05-07T13:24:46.867Z,25.52
2023-05-07T13:28:02.753Z,25.52
2023-05-07T13:31:15.893Z,25.77
2023-05-07T13:34:21.553Z,25.79
2023-05-07T13:37:27.516Z,25.84
2023-05-07T13:40:33.228Z,25.80
2023-05-07T13:43:38.979Z,25.68
2023-05-07T13:46:45.626Z,25.79
2023-05-07T13:49:51.683Z,25.77
2023-05-07T13:52:57.807Z,25.83
2023-05-07T13:56:05.888Z,25.89
2023-05-07T13:59:11.885Z,25.75
2023-05-07T14:02:17.881Z,25.90
2023-05-07T14:05:29.288Z,25.83
2023-05-07T14:08:34.748Z,26.06
2023-05-07T14:11:41.166Z,26.10
2023-05-07T14:14:47.966Z,26.18
2023-05-07T14:17:54.143Z,26.05
2023-05-07T14:20:59.825Z,26.23
2023-05-07T14:24:08.689Z,26.01
2023-05-07T14:27:14.342Z,26.18
2023-05-07T14:30:19.768Z,26.27
2023-05-07T14:33:25.143Z,26.38
2023-05-07T14:36:31.685Z,26.51
2023-05-07T14:39:37.569Z,26.49
2023-05-07T14:42:43.217Z,26.23
2023-05-07T14:45:48.495Z,26.38
2023-05-07T14:48:54.354Z,26.30
2023-05-07T14:52:02.772Z,26.43
2023-05-07T14:55:08.950Z,25.91
2023-05-07T14:58:15.265Z,26.07
2023-05-07T15:01:22.116Z,26.46
2023-05-07T15:04:27.677Z,26.18
2023-05-07T15:07:34.290Z,26.22
2023-05-07T15:10:42.438Z,26.21
2023-05-07T15:13:48.004Z,26.30
2023-05-07T15:16:53.185Z,26.21
2023-05-07T15:19:58.882Z,26.57
2023-05-07T15:23:10.945Z,26.51
2023-05-07T15:26:17.859Z,26.62
2023-05-07T15:29:23.303Z,26.75
2023-05-07T15:32:28.642Z,26.72
2023-05-07T15:35:34.373Z,26.80
2023-05-07T15:38:40.114Z,26.67
2023-05-07T15:41:45.704Z,26.73
2023-05-07T15:44:51.102Z,26.56
2023-05-07T15:47:56.654Z,26.67
2023-05-07T15:51:03.522Z,26.38
2023-05-07T15:54:08.917Z,25.87
2023-05-07T15:57:14.424Z,25.58
2023-05-07T16:00:20.201Z,25.54
2023-05-07T16:03:27.956Z,25.79
2023-05-07T16:06:33.955Z,26.05
2023-05-07T16:09:39.773Z,26.23
2023-05-07T16:12:45.687Z,26.23
2023-05-07T16:15:58.059Z,25.90
2023-05-07T16:19:04.125Z,26.15
2023-05-07T16:22:10.621Z,26.13
2023-05-07T16:25:16.857Z,26.10
2023-05-07T16:28:24.123Z,26.13
2023-05-07T16:31:31.926Z,26.24
2023-05-07T16:34:37.897Z,26.25
2023-05-07T16:37:43.452Z,25.93
2023-05-07T16:40:49.107Z,25.96
2023-05-07T16:43:54.325Z,25.88
2023-05-07T16:46:59.771Z,25.73
2023-05-07T16:50:08.674Z,25.63
2023-05-07T16:53:14.452Z,25.26
2023-05-07T16:56:20.314Z,25.01
2023-05-07T16:59:25.857Z,24.88
2023-05-07T17:02:31.649Z,24.83
2023-05-07T17:05:37.079Z,24.62
2023-05-07T17:08:43.231Z,24.67
2023-05-07T17:11:48.949Z,24.56
2023-05-07T17:14:54.218Z,24.52
2023-05-07T17:17:59.679Z,24.49
2023-05-07T17:21:04.997Z,24.54
2023-05-07T17:24:10.718Z,24.38
2023-05-07T17:27:16.632Z,24.26
2023-05-07T17:30:22.169Z,24.16
2023-05-07T17:33:27.767Z,24.16
2023-05-07T17:36:33.544Z,24.04
2023-05-07T17:39:38.952Z,23.96
2023-05-07T17:42:44.255Z,23.92
2023-05-07T17:45:50.561Z,23.83
2023-05-07T17:48:57.142Z,23.78
2023-05-07T17:52:02.429Z,23.88
2023-05-07T17:55:08.935Z,23.79
2023-05-07T17:58:14.701Z,23.64
2023-05-07T18:01:22.233Z,23.74
2023-05-07T18:04:28.438Z,23.68
2023-05-07T18:07:34.060Z,23.64
2023-05-07T18:10:39.662Z,23.57
2023-05-07T18:13:45.258Z,23.58
2023-05-07T18:16:51.130Z,23.49
2023-05-07T18:19:56.875Z,23.44
2023-05-07T18:23:02.524Z,23.39
2023-05-07T18:26:08.585Z,23.25
2023-05-07T18:29:14.309Z,23.09
2023-05-07T18:32:22.000Z,22.92
2023-05-07T18:35:27.720Z,22.87
2023-05-07T18:38:34.205Z,22.69
2023-05-07T18:41:39.875Z,22.59
2023-05-07T18:44:45.290Z,22.30
2023-05-07T18:47:50.360Z,22.07
2023-05-07T18:50:55.309Z,22.15
2023-05-07T18:54:02.292Z,22.19
2023-05-07T18:57:07.698Z,22.12
2023-05-07T19:00:14.400Z,22.04
2023-05-07T19:03:20.011Z,21.98
2023-05-07T19:06:26.536Z,21.92
2023-05-07T19:09:32.314Z,21.87
2023-05-07T19:12:37.644Z,21.67
2023-05-07T19:15:44.120Z,21.68
2023-05-07T19:18:49.741Z,21.52
2023-05-07T19:21:55.411Z,21.52
2023-05-07T19:25:01.119Z,21.27
2023-05-07T19:28:06.929Z,21.27
2023-05-07T19:31:23.168Z,21.30
2023-05-07T19:34:30.505Z,21.36
2023-05-07T19:37:36.930Z,21.23
2023-05-07T19:40:42.268Z,21.30
2023-05-07T19:43:48.143Z,21.28
2023-05-07T19:46:53.474Z,21.15
2023-05-07T19:49:59.228Z,21.02
2023-05-07T19:53:05.399Z,20.99
2023-05-07T19:56:12.055Z,21.02
2023-05-07T19:59:17.565Z,20.95
2023-05-07T20:02:23.188Z,20.70
2023-05-07T20:05:30.307Z,20.63
2023-05-07T20:08:37.013Z,20.54
2023-05-07T20:11:44.059Z,20.41
2023-05-07T20:14:51.578Z,20.33
2023-05-07T20:17:56.906Z,20.25
2023-05-07T20:21:01.966Z,20.02
2023-05-07T20:24:08.011Z,20.01
2023-05-07T20:27:13.617Z,19.85
2023-05-07T20:30:24.399Z,19.87
2023-05-07T20:33:30.238Z,19.87
2023-05-07T20:36:36.262Z,19.87
2023-05-07T20:39:42.762Z,19.74
2023-05-07T20:42:48.523Z,19.81
2023-05-07T20:46:02.996Z,19.76
2023-05-07T20:49:08.918Z,19.79
2023-05-07T20:52:13.958Z,19.72
2023-05-07T20:55:19.534Z,19.66
2023-05-07T20:58:26.606Z,19.66
2023-05-07T21:01:32.390Z,19.78
2023-05-07T21:04:38.063Z,19.72
2023-05-07T21:07:43.248Z,19.70
2023-05-07T21:10:49.277Z,19.68
2023-05-07T21:13:54.496Z,19.75
2023-05-07T21:17:00.617Z,19.72
2023-05-07T21:20:07.100Z,19.67
2023-05-07T21:23:12.947Z,19.62
2023-05-07T21:26:19.429Z,19.74
2023-05-07T21:29:25.369Z,19.50
2023-05-07T21:32:31.718Z,19.60
2023-05-07T21:35:37.836Z,19.53
2023-05-07T21:38:43.608Z,19.47
2023-05-07T21:41:49.257Z,19.45
2023-05-07T21:44:54.952Z,19.41
2023-05-07T21:48:00.470Z,19.45
2023-05-07T21:51:07.805Z,19.51
2023-05-07T21:54:13.324Z,19.65
2023-05-07T21:57:18.926Z,19.70
2023-05-07T22:00:24.915Z,19.53
2023-05-07T22:03:30.676Z,19.30
2023-05-07T22:06:36.518Z,19.03
2023-05-07T22:09:42.105Z,19.03
2023-05-07T22:12:48.060Z,18.99
2023-05-07T22:15:58.116Z,19.07
2023-05-07T22:19:04.152Z,19.26
2023-05-07T22:22:09.823Z,19.12
2023-05-07T22:25:15.341Z,19.04
2023-05-07T22:28:21.690Z,18.28
2023-05-07T22:31:27.217Z,17.50
2023-05-07T22:34:33.089Z,17.31
2023-05-07T22:37:38.895Z,17.13
2023-05-07T22:40:44.318Z,16.85
2023-05-07T22:43:49.810Z,16.43
2023-05-07T22:46:55.458Z,16.33
2023-05-07T22:50:01.263Z,16.08
2023-05-07T22:53:07.125Z,16.23
2023-05-07T22:56:12.742Z,16.16
2023-05-07T22:59:18.109Z,15.90
2023-05-07T23:02:24.417Z,15.57
2023-05-07T23:05:30.533Z,15.54
2023-05-07T23:08:35.879Z,15.77
2023-05-07T23:11:41.727Z,15.77
2023-05-07T23:14:47.252Z,15.84
2023-05-07T23:17:52.813Z,15.69
2023-05-07T23:20:58.999Z,15.74
2023-05-07T23:24:04.864Z,15.71
2023-05-07T23:27:10.026Z,15.78
2023-05-07T23:30:15.841Z,15.77
2023-05-07T23:33:21.236Z,15.84
2023-05-07T23:36:27.049Z,15.65
2023-05-07T23:39:32.849Z,15.52
2023-05-07T23:42:38.707Z,15.52
2023-05-07T23:45:44.783Z,15.55
2023-05-07T23:48:50.286Z,15.52
2023-05-07T23:51:56.096Z,15.67
2023-05-07T23:55:01.610Z,15.88
2023-05-07T23:58:07.322Z,16.00
